Time;durP1;ratioP1;P1;durP2;ratioP2;P2;SDS_P1;SDS_P2;PMS_P1;PMS_P2;Temp;Humidity;BMP_temperature;BMP_pressure;BME280_temperature;BME280_humidity;BME280_pressure;Samples;Min_cycle;Max_cycle;Signal;HPM_P1;HPM_P2
2022/03/12 00:00:43;;;;;;;16.70;6.03;;;;;;;-4.23;41.45;99368.97;3191050;23;20020;-75
2022/03/12 00:01:58;;;;;;;10.02;4.68;;;;;;;-4.23;41.35;99374.97;3191461;23;20021;-74
2022/03/12 00:03:15;;;;;;;10.35;4.38;;;;;;;-4.17;41.83;99369.25;3191180;23;20017;-77
2022/03/12 00:04:30;;;;;;;10.50;4.28;;;;;;;-4.18;41.29;99372.63;3191614;23;20032;-75
2022/03/12 00:05:55;;;;;;;10.80;4.55;;;;;;;-4.23;42.04;99376.66;3191604;23;20028;-75
2022/03/12 00:07:14;;;;;;;9.07;4.18;;;;;;;-4.27;41.61;99368.81;3191218;23;20366;-75
2022/03/12 00:08:44;;;;;;;9.77;3.70;;;;;;;-4.28;41.92;99376.44;3191434;23;20509;-76
2022/03/12 00:10:00;;;;;;;7.60;3.58;;;;;;;-4.38;42.15;99369.13;3191258;23;20028;-76
2022/03/12 00:11:19;;;;;;;7.03;3.25;;;;;;;-4.35;42.06;99371.81;3191116;23;20100;-75
2022/03/12 00:12:37;;;;;;;8.48;3.47;;;;;;;-4.33;41.79;99368.53;3191158;23;20017;-75
2022/03/12 00:13:54;;;;;;;8.20;3.67;;;;;;;-4.42;42.11;99370.66;3191453;23;20017;-76
2022/03/12 00:15:12;;;;;;;9.30;3.58;;;;;;;-4.47;42.57;99369.56;3191108;23;20091;-76
2022/03/12 00:16:28;;;;;;;8.70;3.78;;;;;;;-4.54;42.53;99369.31;3191161;23;20437;-75
2022/03/12 00:17:45;;;;;;;7.07;3.40;;;;;;;-4.51;42.89;99373.66;3191076;23;20455;-76
2022/03/12 00:19:04;;;;;;;8.77;3.50;;;;;;;-4.58;43.46;99372.50;3191064;23;20017;-75
2022/03/12 00:20:22;;;;;;;8.90;3.42;;;;;;;-4.57;42.82;99370.81;3191173;23;20322;-75
2022/03/12 00:21:43;;;;;;;6.90;3.72;;;;;;;-4.59;44.23;99373.31;3191193;23;20028;-76
2022/03/12 00:22:59;;;;;;;7.78;3.25;;;;;;;-4.61;43.87;99366.34;3191553;23;20025;-75
2022/03/12 00:24:17;;;;;;;8.93;3.40;;;;;;;-4.64;43.37;99368.78;3191177;23;20028;-76
2022/03/12 00:25:33;;;;;;;7.78;3.47;;;;;;;-4.59;43.39;99365.63;3191371;23;20075;-75
2022/03/12 00:26:50;;;;;;;6.35;3.47;;;;;;;-4.60;42.80;99365.59;3191147;23;20025;-77
2022/03/12 00:28:07;;;;;;;8.52;3.42;;;;;;;-4.59;42.80;99362.22;3191515;23;20037;-76
2022/03/12 00:29:24;;;;;;;10.13;3.95;;;;;;;-4.64;43.20;99356.00;3191616;23;20017;-75
2022/03/12 00:30:39;;;;;;;8.45;3.65;;;;;;;-4.67;43.47;99361.84;3190765;23;20024;-75
2022/03/12 00:31:55;;;;;;;8.25;3.58;;;;;;;-4.71;43.86;99363.38;3191113;23;20032;-75
2022/03/12 00:33:12;;;;;;;8.15;3.58;;;;;;;-4.70;44.65;99366.78;3191261;23;20512;-76
2022/03/12 00:34:27;;;;;;;9.80;3.78;;;;;;;-4.72;44.60;99364.19;3191349;23;20106;-76
2022/03/12 00:35:45;;;;;;;8.18;3.70;;;;;;;-4.80;45.44;99362.94;3191098;23;20025;-75
2022/03/12 00:37:01;;;;;;;10.90;3.85;;;;;;;-4.84;44.72;99363.59;3190611;23;20092;-76
2022/03/12 00:38:21;;;;;;;8.68;3.63;;;;;;;-4.75;46.30;99364.03;3191065;23;20021;-75
2022/03/12 00:39:37;;;;;;;8.63;4.28;;;;;;;-4.84;44.93;99364.44;3191353;23;20280;-76
2022/03/12 00:40:52;;;;;;;6.88;3.88;;;;;;;-4.78;45.63;99368.13;3190983;23;20028;-75
2022/03/12 00:42:09;;;;;;;7.22;3.58;;;;;;;-4.71;44.76;99359.94;3191384;23;20080;-75
2022/03/12 00:43:24;;;;;;;9.63;3.60;;;;;;;-4.78;44.71;99353.66;3191041;23;20040;-74
2022/03/12 00:44:40;;;;;;;10.00;3.90;;;;;;;-4.82;44.65;99352.66;3191052;23;20024;-74
2022/03/12 00:45:56;;;;;;;6.18;3.50;;;;;;;-4.84;44.87;99354.22;3191172;23;20364;-75
2022/03/12 00:47:11;;;;;;;9.23;3.65;;;;;;;-4.86;45.62;99349.88;3190801;23;20076;-75
2022/03/12 00:48:27;;;;;;;11.85;3.95;;;;;;;-4.85;44.47;99349.94;3190962;23;20017;-78
2022/03/12 00:49:43;;;;;;;8.25;4.05;;;;;;;-4.89;45.12;99352.25;3191196;23;20441;-76
2022/03/12 00:50:59;;;;;;;8.98;3.63;;;;;;;-4.92;45.23;99349.56;3190949;23;20032;-75
2022/03/12 00:52:15;;;;;;;8.13;4.10;;;;;;;-4.92;46.04;99349.56;3191341;23;20028;-75
2022/03/12 00:53:31;;;;;;;9.43;3.70;;;;;;;-4.93;46.11;99351.25;3191287;23;20013;-75
2022/03/12 00:54:47;;;;;;;8.90;3.90;;;;;;;-4.87;46.59;99345.56;3191045;23;20024;-74
2022/03/12 00:56:04;;;;;;;11.07;4.10;;;;;;;-4.92;45.89;99350.44;3191016;23;20500;-76
2022/03/12 00:57:19;;;;;;;9.73;4.15;;;;;;;-4.96;44.87;99349.41;3190420;23;20021;-75
2022/03/12 00:58:35;;;;;;;8.30;3.85;;;;;;;-4.94;44.58;99352.06;3191357;23;20476;-75
2022/03/12 00:59:51;;;;;;;10.40;4.30;;;;;;;-4.92;45.00;99347.00;3190876;23;20021;-77
2022/03/12 01:01:07;;;;;;;8.55;4.20;;;;;;;-4.93;44.52;99350.38;3190989;23;20524;-77
2022/03/12 01:02:23;;;;;;;8.40;3.67;;;;;;;-4.96;45.94;99346.84;3190923;23;20104;-77
2022/03/12 01:03:39;;;;;;;7.97;3.95;;;;;;;-4.90;45.48;99346.28;3191230;23;20021;-77
2022/03/12 01:04:55;;;;;;;8.15;4.20;;;;;;;-4.89;45.61;99344.59;3191129;23;20028;-79
2022/03/12 01:06:14;;;;;;;10.27;4.07;;;;;;;-4.92;45.28;99345.34;3190712;23;20641;-76
2022/03/12 01:07:29;;;;;;;11.88;3.97;;;;;;;-4.94;46.04;99341.84;3191259;23;20021;-75
2022/03/12 01:08:47;;;;;;;8.70;3.83;;;;;;;-4.91;45.66;99344.53;3190718;23;20028;-77
2022/03/12 01:10:03;;;;;;;8.77;3.95;;;;;;;-4.91;45.25;99341.09;3191279;23;20067;-77
2022/03/12 01:11:18;;;;;;;11.80;4.20;;;;;;;-4.97;45.69;99342.56;3190967;23;20110;-77
2022/03/12 01:12:34;;;;;;;10.35;4.05;;;;;;;-5.00;45.59;99341.53;3190947;23;20021;-75
2022/03/12 01:13:49;;;;;;;8.95;4.78;;;;;;;-5.06;45.31;99336.13;3191417;23;20021;-75
2022/03/12 01:15:06;;;;;;;8.95;4.50;;;;;;;-5.09;45.26;99346.19;3191423;23;20332;-76
2022/03/12 01:16:22;;;;;;;10.25;4.30;;;;;;;-5.04;44.95;99337.06;3190920;23;20068;-75
2022/03/12 01:17:39;;;;;;;7.45;4.03;;;;;;;-5.04;45.19;99337.94;3191155;23;20044;-75
2022/03/12 01:18:55;;;;;;;8.57;3.75;;;;;;;-5.07;46.01;99337.78;3191147;23;20040;-76
2022/03/12 01:20:10;;;;;;;8.05;3.95;;;;;;;-5.05;44.90;99337.88;3190999;23;20020;-75
2022/03/12 01:21:26;;;;;;;11.52;4.05;;;;;;;-5.11;45.36;99338.44;3190947;23;20341;-76
2022/03/12 01:22:42;;;;;;;10.95;4.70;;;;;;;-5.09;46.18;99331.75;3191109;23;20013;-76
2022/03/12 01:23:57;;;;;;;13.10;4.32;;;;;;;-5.09;46.07;99331.75;3190969;23;20021;-75
2022/03/12 01:25:13;;;;;;;8.80;4.20;;;;;;;-5.11;46.08;99330.78;3191263;23;20017;-76
2022/03/12 01:26:29;;;;;;;7.10;3.97;;;;;;;-5.13;45.01;99329.84;3190907;23;20831;-76
2022/03/12 01:27:44;;;;;;;8.60;3.97;;;;;;;-5.16;45.45;99332.25;3190885;23;20037;-77
2022/03/12 01:29:01;;;;;;;14.35;4.72;;;;;;;-5.17;46.10;99328.81;3191099;23;20096;-76
2022/03/12 01:30:26;;;;;;;9.35;4.10;;;;;;;-5.03;45.22;99332.06;3191069;23;20021;-75
2022/03/12 01:31:41;;;;;;;8.07;3.83;;;;;;;-5.06;45.63;99328.47;3190906;23;20017;-76
2022/03/12 01:32:58;;;;;;;11.95;4.43;;;;;;;-5.07;45.42;99331.81;3191556;23;20047;-76
2022/03/12 01:34:13;;;;;;;8.05;3.95;;;;;;;-5.09;45.09;99329.19;3191016;23;20021;-76
2022/03/12 01:35:29;;;;;;;10.50;4.00;;;;;;;-5.12;45.74;99329.91;3191403;23;20029;-75
2022/03/12 01:36:44;;;;;;;9.43;4.20;;;;;;;-5.08;45.90;99327.53;3190993;23;20021;-76
2022/03/12 01:38:04;;;;;;;7.70;3.90;;;;;;;-5.13;46.13;99335.81;3191193;23;20031;-75
2022/03/12 01:39:20;;;;;;;10.15;4.28;;;;;;;-5.09;45.84;99324.06;3191247;23;20023;-75
2022/03/12 01:40:35;;;;;;;8.00;3.55;;;;;;;-4.98;45.35;99324.59;3191289;23;20021;-75
2022/03/12 01:41:53;;;;;;;8.70;4.00;;;;;;;-4.90;45.16;99328.41;3190936;23;20587;-78
2022/03/12 01:43:08;;;;;;;8.90;3.70;;;;;;;-4.92;45.11;99326.56;3191207;23;20774;-75
2022/03/12 01:44:24;;;;;;;13.20;4.10;;;;;;;-4.92;45.30;99329.13;3191330;23;20017;-75
2022/03/12 01:45:40;;;;;;;10.20;4.20;;;;;;;-4.71;44.32;99325.06;3191141;23;20023;-78
2022/03/12 01:46:55;;;;;;;7.65;4.25;;;;;;;-4.71;44.93;99326.72;3190958;23;20052;-76
2022/03/12 01:48:11;;;;;;;9.75;4.00;;;;;;;-4.71;44.58;99331.81;3190978;23;20020;-76
2022/03/12 01:49:27;;;;;;;12.07;4.53;;;;;;;-4.73;45.10;99326.66;3191301;23;20448;-76
2022/03/12 01:50:43;;;;;;;10.32;4.50;;;;;;;-4.68;44.69;99329.41;3191252;23;20091;-75
2022/03/12 01:51:58;;;;;;;9.32;3.70;;;;;;;-4.64;44.71;99328.78;3190642;23;20329;-75
2022/03/12 01:53:14;;;;;;;9.27;4.20;;;;;;;-4.66;44.60;99325.28;3191220;23;20471;-75
2022/03/12 01:54:30;;;;;;;9.25;3.92;;;;;;;-4.57;44.39;99325.69;3190872;23;20024;-75
2022/03/12 01:55:46;;;;;;;10.95;4.35;;;;;;;-4.56;44.39;99318.91;3191165;23;20385;-75
2022/03/12 01:57:03;;;;;;;12.55;4.53;;;;;;;-4.62;44.60;99319.50;3191193;23;20021;-78
2022/03/12 01:58:18;;;;;;;11.30;4.53;;;;;;;-4.54;44.10;99317.28;3192028;23;20318;-75
2022/03/12 01:59:34;;;;;;;9.70;5.03;;;;;;;-4.60;44.62;99310.22;3192426;23;20088;-75
2022/03/12 02:00:51;;;;;;;10.10;3.80;;;;;;;-4.68;44.93;99324.31;3191943;23;20028;-75
2022/03/12 02:02:12;;;;;;;11.70;4.80;;;;;;;-4.74;44.85;99319.81;3191940;23;20028;-77
2022/03/12 02:03:28;;;;;;;10.50;4.50;;;;;;;-4.82;45.66;99318.56;3197089;23;20028;-76
2022/03/12 02:04:52;;;;;;;11.80;4.88;;;;;;;-4.77;45.47;99316.22;3192239;23;20048;-76
2022/03/12 02:06:07;;;;;;;10.70;4.20;;;;;;;-4.81;45.31;99317.75;3197100;23;20017;-75
2022/03/12 02:07:23;;;;;;;12.05;4.82;;;;;;;-4.77;45.27;99314.53;3192183;23;20465;-75
2022/03/12 02:08:40;;;;;;;8.45;4.82;;;;;;;-4.83;45.72;99317.66;3192320;23;20111;-76
2022/03/12 02:09:57;;;;;;;11.75;4.82;;;;;;;-4.83;45.55;99314.25;3192101;23;20013;-78
2022/03/12 02:11:13;;;;;;;11.40;4.55;;;;;;;-4.89;45.94;99312.28;3192073;23;20017;-76
2022/03/12 02:12:28;;;;;;;10.65;4.35;;;;;;;-4.92;46.18;99311.25;3191681;23;20068;-76
2022/03/12 02:13:44;;;;;;;9.65;4.43;;;;;;;-4.95;46.03;99314.56;3192258;23;20024;-75
2022/03/12 02:15:01;;;;;;;9.38;4.80;;;;;;;-4.98;46.73;99310.16;3192099;23;20392;-75
2022/03/12 02:16:16;;;;;;;11.73;5.10;;;;;;;-4.99;46.82;99310.97;3191776;23;20908;-75
2022/03/12 02:17:32;;;;;;;8.68;4.28;;;;;;;-5.00;47.25;99314.31;3192143;23;20048;-76
2022/03/12 02:18:48;;;;;;;10.73;4.80;;;;;;;-5.02;46.87;99312.47;3191675;23;20417;-77
2022/03/12 02:20:05;;;;;;;11.00;4.85;;;;;;;-5.01;46.84;99304.03;3192117;23;20017;-75
2022/03/12 02:21:51;;;;;;;10.35;4.70;;;;;;;-4.93;46.54;99296.72;3192095;23;20044;-75
2022/03/12 02:23:09;;;;;;;11.43;5.20;;;;;;;-4.97;46.53;99288.94;3167530;23;20028;-75
2022/03/12 02:24:27;;;;;;;10.88;4.70;;;;;;;-4.92;46.45;99294.25;3192083;23;20499;-75
2022/03/12 02:25:43;;;;;;;9.40;4.88;;;;;;;-4.94;46.64;99293.31;3192116;23;20021;-74
2022/03/12 02:27:00;;;;;;;10.88;4.57;;;;;;;-4.94;46.39;99294.97;3192162;23;20023;-77
2022/03/12 02:28:18;;;;;;;12.43;5.40;;;;;;;-4.91;46.82;99290.91;3192282;23;20021;-75
2022/03/12 02:29:35;;;;;;;7.95;4.13;;;;;;;-4.87;46.17;99289.38;3192016;23;20025;-75
2022/03/12 02:30:55;;;;;;;9.20;4.88;;;;;;;-4.90;46.24;99292.66;3192205;23;20025;-75
2022/03/12 02:32:13;;;;;;;10.82;5.15;;;;;;;-4.86;46.05;99286.00;3191981;23;20017;-75
2022/03/12 02:33:29;;;;;;;11.35;4.72;;;;;;;-4.87;46.23;99281.72;3192710;23;20032;-75
2022/03/12 02:34:47;;;;;;;11.38;4.63;;;;;;;-4.90;46.59;99282.44;3192354;23;20017;-74
2022/03/12 02:36:05;;;;;;;10.32;4.57;;;;;;;-4.94;46.22;99285.66;3193046;23;20425;-77
2022/03/12 02:37:33;;;;;;;10.00;5.28;;;;;;;-4.93;46.37;99286.50;3196447;23;20177;-76
2022/03/12 02:38:49;;;;;;;10.57;4.38;;;;;;;-4.92;46.80;99284.03;3198690;23;20067;-75
2022/03/12 02:40:09;;;;;;;12.07;4.95;;;;;;;-4.82;45.78;99278.56;3198693;23;20021;-76
2022/03/12 02:41:25;;;;;;;11.68;4.93;;;;;;;-4.86;46.18;99289.44;3198209;23;20017;-75
2022/03/12 02:42:40;;;;;;;9.25;4.10;;;;;;;-4.82;46.59;99283.69;3195533;23;20025;-75
2022/03/12 02:43:56;;;;;;;11.18;5.07;;;;;;;-4.79;46.28;99284.63;3192013;23;20025;-77
2022/03/12 02:45:11;;;;;;;11.80;4.88;;;;;;;-4.75;46.31;99282.28;3191785;23;20021;-76
2022/03/12 02:46:29;;;;;;;8.52;4.43;;;;;;;-4.79;45.98;99284.63;3191632;23;20028;-75
2022/03/12 02:47:45;;;;;;;11.57;5.05;;;;;;;-4.83;45.81;99281.91;3191818;23;20017;-75
2022/03/12 02:49:01;;;;;;;15.45;5.25;;;;;;;-4.84;46.15;99282.69;3192039;23;20062;-77
2022/03/12 02:50:18;;;;;;;12.27;4.85;;;;;;;-4.83;46.24;99289.56;3191834;23;20049;-75
2022/03/12 02:51:34;;;;;;;10.75;5.00;;;;;;;-4.85;46.89;99285.22;3191990;23;20028;-76
2022/03/12 02:52:50;;;;;;;10.63;4.78;;;;;;;-4.80;45.99;99282.88;3191859;23;20091;-75
2022/03/12 02:54:06;;;;;;;11.57;5.35;;;;;;;-4.81;46.08;99284.53;3192130;23;20373;-75
2022/03/12 02:55:24;;;;;;;11.18;4.82;;;;;;;-4.79;45.80;99274.41;3191860;23;20017;-76
2022/03/12 02:56:39;;;;;;;10.55;4.78;;;;;;;-4.79;46.51;99282.06;3175159;23;20083;-75
2022/03/12 02:57:55;;;;;;;12.18;4.68;;;;;;;-4.80;45.88;99283.72;3182214;23;20452;-75
2022/03/12 02:59:13;;;;;;;11.45;4.53;;;;;;;-4.76;45.72;99272.84;3191828;23;20017;-75
2022/03/12 03:00:29;;;;;;;11.75;5.15;;;;;;;-4.78;45.35;99271.91;3191184;23;20586;-75
2022/03/12 03:01:44;;;;;;;11.73;4.82;;;;;;;-4.77;45.99;99267.69;3191529;23;20017;-75
2022/03/12 03:03:01;;;;;;;12.00;5.07;;;;;;;-4.75;45.76;99271.19;3190759;23;20017;-75
2022/03/12 03:04:18;;;;;;;11.00;5.28;;;;;;;-4.78;45.99;99264.25;3192025;23;20048;-78
2022/03/12 03:05:47;;;;;;;9.98;4.70;;;;;;;-4.73;46.19;99267.91;3191765;23;20448;-76
2022/03/12 03:07:04;;;;;;;10.70;4.90;;;;;;;-4.76;45.76;99271.97;3191491;23;20444;-76
2022/03/12 03:08:21;;;;;;;11.70;4.57;;;;;;;-4.78;45.27;99269.34;3191614;23;20492;-76
2022/03/12 03:09:38;;;;;;;12.63;4.75;;;;;;;-4.77;45.45;99270.25;3191437;23;20017;-75
2022/03/12 03:10:58;;;;;;;11.07;4.63;;;;;;;-4.77;45.64;99262.56;3191962;23;20091;-75
2022/03/12 03:12:14;;;;;;;9.50;4.38;;;;;;;-4.77;45.70;99265.97;3191295;23;20051;-75
2022/03/12 03:13:36;;;;;;;11.35;5.18;;;;;;;-4.66;44.83;99257.94;3191517;23;20079;-75
2022/03/12 03:14:51;;;;;;;11.18;3.90;;;;;;;-4.60;44.51;99265.91;3191627;23;20258;-76
2022/03/12 03:16:18;;;;;;;11.32;5.20;;;;;;;-4.57;45.15;99258.38;3191473;23;20017;-75
2022/03/12 03:17:37;;;;;;;8.20;4.38;;;;;;;-4.60;44.96;99261.66;3191300;23;20040;-75
2022/03/12 03:18:53;;;;;;;14.88;5.18;;;;;;;-4.62;44.92;99272.59;3191360;23;20516;-75
2022/03/12 03:20:10;;;;;;;9.70;5.00;;;;;;;-4.58;44.80;99267.72;3191397;23;20259;-75
2022/03/12 03:21:26;;;;;;;12.18;5.25;;;;;;;-4.61;45.02;99261.59;3191257;23;20017;-75
2022/03/12 03:22:42;;;;;;;10.60;4.97;;;;;;;-4.65;45.50;99273.38;3191380;23;20017;-75
2022/03/12 03:24:08;;;;;;;12.00;4.82;;;;;;;-4.64;45.26;99274.22;3191091;23;20024;-75
2022/03/12 03:25:24;;;;;;;10.55;5.10;;;;;;;-4.65;45.70;99272.47;3191563;23;20518;-74
2022/03/12 03:26:40;;;;;;;12.10;4.70;;;;;;;-4.68;45.14;99274.09;3174602;23;20022;-75
2022/03/12 03:27:59;;;;;;;7.65;4.38;;;;;;;-4.70;45.73;99275.69;3182406;23;20029;-76
2022/03/12 03:29:16;;;;;;;12.02;5.18;;;;;;;-4.70;44.89;99274.81;3191813;23;20021;-76
2022/03/12 03:30:34;;;;;;;11.38;4.43;;;;;;;-4.73;45.03;99269.56;3191346;23;20028;-76
2022/03/12 03:31:50;;;;;;;11.63;4.85;;;;;;;-4.76;45.62;99270.28;3191670;23;20029;-76
2022/03/12 03:33:08;;;;;;;11.45;5.03;;;;;;;-4.76;45.35;99271.97;3191718;23;20020;-75
2022/03/12 03:34:24;;;;;;;9.55;4.07;;;;;;;-4.71;45.46;99270.50;3191455;23;20021;-76
2022/03/12 03:35:40;;;;;;;10.95;4.47;;;;;;;-4.74;45.26;99278.94;3191375;23;20091;-76
2022/03/12 03:36:55;;;;;;;10.50;4.78;;;;;;;-4.73;45.45;99283.22;3191596;23;20099;-77
2022/03/12 03:38:12;;;;;;;12.85;4.63;;;;;;;-4.77;45.53;99286.44;3191493;23;20021;-76
2022/03/12 03:39:28;;;;;;;8.32;4.22;;;;;;;-4.80;45.57;99290.53;3191369;23;20024;-77
2022/03/12 03:40:44;;;;;;;32.25;5.53;;;;;;;-4.86;45.99;99278.34;3191531;23;20173;-75
2022/03/12 03:42:00;;;;;;;9.75;4.10;;;;;;;-4.85;46.12;99286.06;3191328;23;20029;-77
2022/03/12 03:43:20;;;;;;;10.02;4.25;;;;;;;-4.86;46.03;99289.44;3191359;23;20337;-77
2022/03/12 03:44:36;;;;;;;8.23;4.28;;;;;;;-4.87;45.50;99291.94;3191681;23;20021;-76
2022/03/12 03:45:54;;;;;;;10.02;4.95;;;;;;;-4.87;46.32;99291.94;3191535;23;20087;-74
2022/03/12 03:47:10;;;;;;;10.95;4.68;;;;;;;-4.97;46.52;99296.59;3191372;23;20397;-77
2022/03/12 03:48:25;;;;;;;10.25;4.40;;;;;;;-4.99;46.60;99297.31;3191242;23;20017;-77
2022/03/12 03:49:44;;;;;;;9.27;4.28;;;;;;;-4.98;46.20;99301.59;3191335;23;20017;-78
2022/03/12 03:50:59;;;;;;;11.35;4.80;;;;;;;-4.99;46.27;99305.84;3191246;23;20031;-78
2022/03/12 03:52:15;;;;;;;9.15;4.57;;;;;;;-5.02;46.28;99310.81;3191383;23;20055;-77
2022/03/12 03:53:30;;;;;;;8.85;4.72;;;;;;;-5.08;46.63;99302.84;3191392;23;20025;-77
2022/03/12 03:54:46;;;;;;;8.80;4.50;;;;;;;-5.00;46.20;99304.09;3191256;23;20074;-76
2022/03/12 03:56:02;;;;;;;10.20;4.75;;;;;;;-5.01;46.29;99304.03;3191281;23;20017;-76
2022/03/12 03:57:19;;;;;;;11.32;4.78;;;;;;;-5.07;46.59;99307.16;3191377;23;20028;-76
2022/03/12 03:58:35;;;;;;;8.27;3.97;;;;;;;-5.06;46.13;99305.47;3191291;23;20017;-77
2022/03/12 03:59:51;;;;;;;9.57;4.50;;;;;;;-5.04;46.29;99301.31;3191656;23;20348;-76
2022/03/12 04:01:14;;;;;;;12.15;4.78;;;;;;;-5.05;46.23;99303.00;3191207;23;20019;-77
2022/03/12 04:02:30;;;;;;;11.52;4.78;;;;;;;-5.08;46.35;99300.28;3191512;23;20445;-75
2022/03/12 04:03:49;;;;;;;11.60;4.72;;;;;;;-5.06;46.40;99297.81;3191217;23;20066;-75
2022/03/12 04:05:05;;;;;;;11.40;4.53;;;;;;;-5.06;46.64;99300.38;3191168;23;20337;-76
2022/03/12 04:06:22;;;;;;;15.40;4.70;;;;;;;-5.14;46.59;99298.31;3191556;23;20032;-76
2022/03/12 04:07:37;;;;;;;9.75;4.60;;;;;;;-5.18;46.70;99295.53;3191232;23;20045;-76
2022/03/12 04:08:54;;;;;;;10.68;4.50;;;;;;;-5.18;47.18;99291.31;3191477;23;20576;-76
2022/03/12 04:10:10;;;;;;;13.45;4.68;;;;;;;-5.22;47.22;99294.53;3191562;23;20020;-76
2022/03/12 04:11:26;;;;;;;9.40;4.78;;;;;;;-5.26;47.50;99303.72;3191153;23;20020;-76
2022/03/12 04:12:41;;;;;;;10.80;4.80;;;;;;;-5.28;47.30;99291.66;3191611;23;20095;-75
2022/03/12 04:13:58;;;;;;;9.80;4.40;;;;;;;-5.28;47.14;99292.56;3191282;23;20349;-76
2022/03/12 04:15:13;;;;;;;9.45;4.45;;;;;;;-5.32;46.91;99298.28;3191282;23;20037;-76
2022/03/12 04:16:31;;;;;;;9.60;4.35;;;;;;;-5.30;47.38;99291.59;3191715;23;20162;-76
2022/03/12 04:17:51;;;;;;;10.45;4.82;;;;;;;-5.38;47.45;99303.09;3191027;23;20021;-76
2022/03/12 04:19:07;;;;;;;14.68;4.93;;;;;;;-5.39;47.32;99296.25;3190853;23;20013;-75
2022/03/12 04:20:22;;;;;;;9.50;4.30;;;;;;;-5.36;48.42;99300.63;3191021;23;20506;-76
2022/03/12 04:21:40;;;;;;;9.57;4.93;;;;;;;-5.40;47.49;99297.91;3190686;23;20449;-75
2022/03/12 04:22:55;;;;;;;11.05;4.55;;;;;;;-5.44;47.65;99295.16;3191256;23;20037;-75
2022/03/12 04:24:13;;;;;;;10.65;4.32;;;;;;;-5.35;47.04;99292.19;3191058;23;20024;-75
2022/03/12 04:25:31;;;;;;;9.75;4.72;;;;;;;-5.33;47.46;99296.53;3191298;23;20024;-76
2022/03/12 04:26:46;;;;;;;9.45;4.60;;;;;;;-5.34;47.67;99301.59;3191399;23;20017;-76
2022/03/12 04:28:02;;;;;;;9.13;4.72;;;;;;;-5.38;47.28;99295.44;3191283;23;20318;-75
2022/03/12 04:29:18;;;;;;;11.70;4.97;;;;;;;-5.32;47.12;99298.28;3191405;23;20017;-76
2022/03/12 04:30:35;;;;;;;9.50;4.45;;;;;;;-5.28;46.88;99290.00;3190794;23;20028;-75
2022/03/12 04:31:51;;;;;;;10.82;4.60;;;;;;;-5.27;46.60;99286.63;3191570;23;20045;-75
2022/03/12 04:33:09;;;;;;;10.43;4.20;;;;;;;-5.18;46.26;99290.44;3190640;23;20020;-75
2022/03/12 04:34:25;;;;;;;9.20;4.40;;;;;;;-5.19;46.73;99288.69;3190472;23;20071;-75
2022/03/12 04:35:46;;;;;;;9.38;4.57;;;;;;;-5.23;46.74;99297.88;3191051;23;20067;-77
2022/03/12 04:37:03;;;;;;;8.85;3.78;;;;;;;-5.17;46.25;99285.41;3190941;23;20025;-75
2022/03/12 04:38:19;;;;;;;11.23;4.20;;;;;;;-5.22;46.11;99288.53;3191204;23;20479;-75
2022/03/12 04:39:35;;;;;;;8.27;4.05;;;;;;;-5.27;46.83;99293.41;3191146;23;20071;-76
2022/03/12 04:40:50;;;;;;;11.00;4.47;;;;;;;-5.29;46.24;99293.34;3191156;23;20423;-75
2022/03/12 04:42:07;;;;;;;13.57;4.78;;;;;;;-5.28;45.92;99294.22;3191097;23;20028;-77
2022/03/12 04:43:26;;;;;;;7.55;4.47;;;;;;;-5.22;45.73;99286.88;3191308;23;20020;-74
2022/03/12 04:44:42;;;;;;;8.73;4.00;;;;;;;-5.26;46.15;99290.94;3191389;23;20071;-74
2022/03/12 04:46:00;;;;;;;7.47;3.55;;;;;;;-5.28;45.67;99284.00;3191162;23;20025;-76
2022/03/12 04:47:19;;;;;;;9.27;4.18;;;;;;;-5.17;45.61;99289.63;3191334;23;20017;-78
2022/03/12 04:48:35;;;;;;;11.35;3.83;;;;;;;-5.21;46.03;99280.97;3191262;23;20017;-74
2022/03/12 04:49:51;;;;;;;10.60;4.10;;;;;;;-5.16;45.88;99284.59;3191330;23;20025;-75
2022/03/12 04:51:07;;;;;;;11.15;4.30;;;;;;;-5.16;45.49;99288.84;3190927;23;20085;-75
2022/03/12 04:52:22;;;;;;;9.77;4.72;;;;;;;-5.21;46.04;99287.72;3190556;23;20017;-75
2022/03/12 04:53:38;;;;;;;8.05;3.70;;;;;;;-5.23;45.85;99282.56;3190759;23;20100;-75
2022/03/12 04:54:54;;;;;;;8.10;3.90;;;;;;;-5.24;46.24;99283.34;3190396;23;20021;-75
2022/03/12 04:56:10;;;;;;;9.45;4.40;;;;;;;-5.19;45.13;99281.91;3174514;23;20742;-74
2022/03/12 04:57:25;;;;;;;13.05;4.30;;;;;;;-5.23;45.45;99290.22;3181233;23;20035;-75
2022/03/12 04:58:41;;;;;;;7.55;3.65;;;;;;;-5.24;45.60;99280.78;3190528;23;20028;-76
2022/03/12 04:59:56;;;;;;;11.07;4.00;;;;;;;-5.07;44.92;99283.31;3190837;23;20456;-76
2022/03/12 05:01:13;;;;;;;10.63;4.40;;;;;;;-5.07;44.86;99289.28;3190852;23;20356;-75
2022/03/12 05:02:28;;;;;;;8.38;3.88;;;;;;;-5.12;45.30;99285.63;3190835;23;20440;-75
2022/03/12 05:03:45;;;;;;;8.98;3.78;;;;;;;-5.20;45.26;99289.47;3190768;23;20021;-75
2022/03/12 05:05:00;;;;;;;9.80;3.67;;;;;;;-5.25;46.37;99295.25;3190689;23;20052;-75
2022/03/12 05:06:18;;;;;;;10.07;4.10;;;;;;;-5.26;45.51;99292.59;3190560;23;20021;-75
2022/03/12 05:07:34;;;;;;;10.02;4.45;;;;;;;-5.26;45.15;99297.72;3190510;23;20021;-75
2022/03/12 05:08:49;;;;;;;9.43;4.32;;;;;;;-5.26;46.17;99302.81;3190677;23;20487;-75
2022/03/12 05:10:09;;;;;;;14.23;4.70;;;;;;;-5.22;45.14;99293.63;3190673;23;20087;-74
2022/03/12 05:11:25;;;;;;;11.85;4.88;;;;;;;-5.29;45.67;99301.00;3190673;23;20021;-77
2022/03/12 05:12:41;;;;;;;8.68;4.30;;;;;;;-5.27;45.58;99293.41;3190929;23;20430;-75
2022/03/12 05:13:56;;;;;;;9.13;3.50;;;;;;;-5.23;45.37;99299.56;3190596;23;20048;-76
2022/03/12 05:15:13;;;;;;;11.55;3.80;;;;;;;-5.18;45.71;99291.31;3190235;23;20028;-76
2022/03/12 05:16:29;;;;;;;10.35;4.13;;;;;;;-5.23;45.45;99299.56;3190365;23;20023;-76
2022/03/12 05:17:48;;;;;;;9.50;4.13;;;;;;;-5.26;45.51;99297.72;3191237;23;20750;-77
2022/03/12 05:19:06;;;;;;;8.10;3.85;;;;;;;-5.31;46.18;99294.06;3190569;23;20021;-76
2022/03/12 05:20:25;;;;;;;6.68;2.85;;;;;;;-5.26;45.79;99296.06;3190631;23;20024;-76
2022/03/12 05:21:41;;;;;;;9.60;3.88;;;;;;;-5.22;45.71;99294.53;3190553;23;20068;-76
2022/03/12 05:22:57;;;;;;;11.05;4.72;;;;;;;-5.26;45.98;99296.06;3191025;23;20025;-77
2022/03/12 05:24:13;;;;;;;8.88;3.53;;;;;;;-5.26;45.94;99290.06;3191174;23;20023;-77
2022/03/12 05:25:30;;;;;;;10.18;4.05;;;;;;;-5.23;45.91;99291.88;3190820;23;20025;-76
2022/03/12 05:26:46;;;;;;;7.45;3.92;;;;;;;-5.22;46.04;99293.63;3190792;23;20021;-76
2022/03/12 05:28:02;;;;;;;9.23;4.40;;;;;;;-5.29;46.36;99298.47;3190880;23;20388;-76
2022/03/12 05:29:18;;;;;;;8.13;3.67;;;;;;;-5.30;46.23;99306.91;3190823;23;20024;-76
2022/03/12 05:30:34;;;;;;;8.88;4.00;;;;;;;-5.36;46.59;99304.03;3190828;23;20352;-74
2022/03/12 05:31:52;;;;;;;11.57;4.38;;;;;;;-5.36;46.20;99300.63;3190996;23;20326;-77
2022/03/12 05:33:08;;;;;;;12.00;4.28;;;;;;;-5.39;46.61;99309.88;3192063;23;20012;-75
2022/03/12 05:34:23;;;;;;;9.38;4.45;;;;;;;-5.30;45.97;99311.13;3191779;23;20587;-75
2022/03/12 05:35:40;;;;;;;10.80;4.60;;;;;;;-5.35;45.91;99315.16;3191475;23;20023;-77
2022/03/12 05:36:55;;;;;;;10.52;5.07;;;;;;;-5.33;46.13;99311.00;3191578;23;20044;-74
2022/03/12 05:38:12;;;;;;;10.50;4.47;;;;;;;-5.31;46.29;99310.28;3191907;23;20471;-76
2022/03/12 05:39:28;;;;;;;10.27;4.05;;;;;;;-5.30;46.00;99316.25;3192086;23;20079;-75
2022/03/12 05:40:44;;;;;;;11.43;4.28;;;;;;;-5.32;45.98;99315.28;3192011;23;20025;-75
2022/03/12 05:42:04;;;;;;;11.85;4.38;;;;;;;-5.36;46.11;99319.38;3191742;23;20029;-75
2022/03/12 05:43:19;;;;;;;11.07;5.13;;;;;;;-5.37;46.51;99316.75;3192003;23;20017;-75
2022/03/12 05:44:36;;;;;;;9.48;4.75;;;;;;;-5.41;46.24;99306.38;3192241;23;20040;-75
2022/03/12 05:45:52;;;;;;;7.30;4.20;;;;;;;-5.39;47.07;99316.66;3192585;23;20017;-77
2022/03/12 05:47:09;;;;;;;10.85;5.07;;;;;;;-5.44;46.85;99320.66;3192312;23;20025;-74
2022/03/12 05:48:25;;;;;;;9.48;4.55;;;;;;;-5.40;46.38;99320.00;3193815;23;20121;-79
2022/03/12 05:49:40;;;;;;;9.15;4.53;;;;;;;-5.38;46.86;99326.06;3195013;23;20120;-74
2022/03/12 05:50:57;;;;;;;11.30;4.47;;;;;;;-5.41;46.63;99325.91;3195901;23;20577;-74
2022/03/12 05:52:14;;;;;;;7.55;4.65;;;;;;;-5.38;46.59;99326.06;3178521;23;20032;-78
2022/03/12 05:53:32;;;;;;;11.20;4.60;;;;;;;-5.43;47.23;99328.38;3185446;23;20466;-75
2022/03/12 05:54:48;;;;;;;8.75;4.43;;;;;;;-5.46;47.05;99324.78;3191677;23;20021;-76
2022/03/12 05:56:04;;;;;;;14.13;4.72;;;;;;;-5.46;47.36;99328.25;3191551;23;20023;-76
2022/03/12 05:57:20;;;;;;;8.45;4.10;;;;;;;-5.47;46.99;99330.69;3191669;23;20420;-75
2022/03/12 05:58:38;;;;;;;14.52;5.25;;;;;;;-5.44;46.70;99325.78;3192275;23;20052;-75
2022/03/12 05:59:54;;;;;;;7.95;4.18;;;;;;;-5.45;46.94;99321.44;3191696;23;20017;-75